La Sarnosa, Argentina
Current Conditions -  °F | °C
As of 10:00 PM on Thursday 18 Dec 2014 (Local Time) from SARE Reporting Station
Clear Clear  
Wind Chill: 77°   Ceiling: Unl
Heat Index: 78°   Visibility: 6mi
Dew Point: 72°   Wind: 2mph
Humidity: 83%   Direction: 140°SE
Pressure: 29.8"   Gusts: NA
Location:  29.23°S, 60.42°W
Report Text: SARE 190100Z 14002KT CAVOK 25/22 Q1009
Loading
Personal Weather Stations






























Interactive Weather Map New forecast layout! Learn more

10-Day Weather Forecast

Advertisements
Track Severe Weather on mobile